createdAt,value
2019-01-25T00:00:55.840Z,33.33
2019-01-25T00:03:28.328Z,31.80
2019-01-25T00:06:00.923Z,31.73
2019-01-25T00:08:32.122Z,30.52
2019-01-25T00:11:04.098Z,33.05
2019-01-25T00:13:34.484Z,33.35
2019-01-25T00:16:07.486Z,31.95
2019-01-25T00:18:37.804Z,34.27
2019-01-25T00:21:13.054Z,32.17
2019-01-25T00:23:45.839Z,34.95
2019-01-25T00:26:17.728Z,33.20
2019-01-25T00:28:48.803Z,32.10
2019-01-25T00:31:18.686Z,34.75
2019-01-25T00:33:58.834Z,34.70
2019-01-25T00:36:34.143Z,34.80
2019-01-25T00:39:06.399Z,32.17
2019-01-25T00:41:39.148Z,32.67
2019-01-25T00:44:15.111Z,34.95
2019-01-25T00:46:46.423Z,35.17
2019-01-25T00:49:17.920Z,35.50
2019-01-25T00:51:48.612Z,34.25
2019-01-25T00:54:28.840Z,34.08
2019-01-25T00:57:08.189Z,32.40
2019-01-25T00:59:42.300Z,33.45
2019-01-25T01:02:15.632Z,35.38
2019-01-25T01:04:47.563Z,36.75
2019-01-25T01:07:22.312Z,33.67
2019-01-25T01:09:52.463Z,37.75
2019-01-25T01:12:25.559Z,35.20
2019-01-25T01:15:01.759Z,35.50
2019-01-25T01:17:32.260Z,34.58
2019-01-25T01:20:01.758Z,34.48
2019-01-25T01:22:33.842Z,34.40
2019-01-25T01:25:06.616Z,34.83
2019-01-25T01:27:39.040Z,34.67
2019-01-25T01:30:15.145Z,33.88
2019-01-25T01:32:45.099Z,32.80
2019-01-25T01:35:23.241Z,32.93
2019-01-25T01:37:54.946Z,34.92
2019-01-25T01:40:32.638Z,32.50
2019-01-25T01:43:08.732Z,32.40
2019-01-25T01:45:38.460Z,34.75
2019-01-25T01:48:07.701Z,31.85
2019-01-25T01:50:37.239Z,32.15
2019-01-25T01:53:07.926Z,33.55
2019-01-25T01:55:38.082Z,33.20
2019-01-25T01:58:08.846Z,33.60
2019-01-25T02:00:39.893Z,30.72
2019-01-25T02:03:09.311Z,33.80
2019-01-25T02:05:40.337Z,31.93
2019-01-25T02:08:10.032Z,31.80
2019-01-25T02:10:39.222Z,33.88
2019-01-25T02:13:08.474Z,32.40
2019-01-25T02:15:38.672Z,31.30
2019-01-25T02:18:07.849Z,32.35
2019-01-25T02:20:37.072Z,31.42
2019-01-25T02:23:06.461Z,31.60
2019-01-25T02:25:35.694Z,33.23
2019-01-25T02:28:04.990Z,32.55
2019-01-25T02:30:34.894Z,32.30
2019-01-25T02:33:04.476Z,32.08
2019-01-25T02:35:33.520Z,34.13
2019-01-25T02:38:03.250Z,31.77
2019-01-25T02:40:38.676Z,32.73
2019-01-25T02:43:03.616Z,32.88
2019-01-25T02:45:33.211Z,32.78
2019-01-25T02:48:02.344Z,33.38
2019-01-25T02:50:31.635Z,33.73
2019-01-25T02:53:03.898Z,32.98
2019-01-25T02:55:33.040Z,32.35
2019-01-25T02:58:02.328Z,34.58
2019-01-25T03:00:31.470Z,33.90
2019-01-25T03:03:00.573Z,31.15
2019-01-25T03:05:30.614Z,33.42
2019-01-25T03:07:59.650Z,33.23
2019-01-25T03:10:29.562Z,32.53
2019-01-25T03:12:58.840Z,33.78
2019-01-25T03:15:28.355Z,32.63
2019-01-25T03:17:58.114Z,32.28
2019-01-25T03:20:27.664Z,33.38
2019-01-25T03:22:57.906Z,34.65
2019-01-25T03:25:27.852Z,34.83
2019-01-25T03:27:57.078Z,32.50
2019-01-25T03:30:26.864Z,33.38
2019-01-25T03:32:55.932Z,35.30
2019-01-25T03:35:26.315Z,36.70
2019-01-25T03:37:55.798Z,32.35
2019-01-25T03:40:25.836Z,34.50
2019-01-25T03:42:54.939Z,32.60
2019-01-25T03:45:24.296Z,34.25
2019-01-25T03:47:53.834Z,35.15
2019-01-25T03:50:27.306Z,36.38
2019-01-25T03:52:58.124Z,36.05
2019-01-25T03:55:27.479Z,33.63
2019-01-25T03:57:56.673Z,34.90
2019-01-25T04:00:26.662Z,36.45
2019-01-25T04:02:56.039Z,35.10
2019-01-25T04:05:25.218Z,34.83
2019-01-25T04:07:54.585Z,33.23
2019-01-25T04:10:24.873Z,33.67
2019-01-25T04:12:54.068Z,34.03
2019-01-25T04:15:24.249Z,35.83
2019-01-25T04:17:53.551Z,36.85
2019-01-25T04:20:23.892Z,34.33
2019-01-25T04:22:53.916Z,34.80
2019-01-25T04:25:24.772Z,35.83
2019-01-25T04:27:54.228Z,33.02
2019-01-25T04:30:24.455Z,34.73
2019-01-25T04:32:56.111Z,35.80
2019-01-25T04:35:26.614Z,35.20
2019-01-25T04:37:56.087Z,34.83
2019-01-25T04:40:27.020Z,33.88
2019-01-25T04:42:57.626Z,33.50
2019-01-25T04:45:28.097Z,35.23
2019-01-25T04:47:57.914Z,33.92
2019-01-25T04:50:28.227Z,34.73
2019-01-25T04:52:58.457Z,33.42
2019-01-25T04:55:29.287Z,33.98
2019-01-25T04:58:26.834Z,33.30
2019-01-25T05:00:56.398Z,34.27
2019-01-25T05:03:25.730Z,33.35
2019-01-25T05:05:54.940Z,33.80
2019-01-25T05:08:25.927Z,34.98
2019-01-25T05:10:55.493Z,34.48
2019-01-25T05:13:25.185Z,34.15
2019-01-25T05:15:56.391Z,32.88
2019-01-25T05:18:25.615Z,33.45
2019-01-25T05:20:54.940Z,34.70
2019-01-25T05:23:25.223Z,33.73
2019-01-25T05:25:55.894Z,35.45
2019-01-25T05:28:25.238Z,35.73
2019-01-25T05:31:00.176Z,31.82
2019-01-25T05:33:30.682Z,34.23
2019-01-25T05:36:00.610Z,34.92
2019-01-25T05:38:30.614Z,34.13
2019-01-25T05:41:00.743Z,34.25
2019-01-25T05:43:38.422Z,33.42
2019-01-25T05:46:08.458Z,35.50
2019-01-25T05:48:39.477Z,34.55
2019-01-25T05:51:09.902Z,33.02
2019-01-25T05:53:40.106Z,33.15
2019-01-25T05:56:09.514Z,34.18
2019-01-25T05:58:39.652Z,33.50
2019-01-25T06:01:08.692Z,35.05
2019-01-25T06:06:13.828Z,33.95
2019-01-25T06:08:43.942Z,34.27
2019-01-25T06:11:13.538Z,32.73
2019-01-25T06:13:45.794Z,33.00
2019-01-25T06:16:14.789Z,34.90
2019-01-25T06:18:43.623Z,33.78
2019-01-25T06:21:12.384Z,32.60
2019-01-25T06:23:41.177Z,32.45
2019-01-25T06:26:10.571Z,32.80
2019-01-25T06:28:39.322Z,35.13
2019-01-25T06:31:08.053Z,33.60
2019-01-25T06:33:37.120Z,32.50
2019-01-25T06:36:29.941Z,33.18
2019-01-25T06:47:06.775Z,29.87
2019-01-25T06:55:14.717Z,31.52
2019-01-25T06:58:00.375Z,31.23
2019-01-25T07:00:30.079Z,31.95
2019-01-25T07:02:58.671Z,31.17
2019-01-25T07:05:27.344Z,31.20
2019-01-25T07:07:56.041Z,28.30
2019-01-25T07:10:24.776Z,31.10
2019-01-25T07:12:53.493Z,31.68
2019-01-25T07:15:23.361Z,30.85
2019-01-25T07:17:51.981Z,28.62
2019-01-25T07:20:20.651Z,29.00
2019-01-25T07:22:49.308Z,28.75
2019-01-25T07:25:18.002Z,28.17
2019-01-25T07:27:46.755Z,28.38
2019-01-25T07:30:15.565Z,28.65
2019-01-25T07:32:44.271Z,29.05
2019-01-25T07:35:12.970Z,27.13
2019-01-25T07:37:41.755Z,28.27
2019-01-25T07:40:10.707Z,25.72
2019-01-25T07:42:39.509Z,26.27
2019-01-25T07:45:08.370Z,26.23
2019-01-25T07:47:37.129Z,26.68
2019-01-25T07:50:06.032Z,26.93
2019-01-25T07:52:34.788Z,28.05
2019-01-25T07:55:04.032Z,28.15
2019-01-25T07:57:32.774Z,26.87
2019-01-25T08:00:01.530Z,26.10
2019-01-25T08:02:30.196Z,25.80
2019-01-25T08:04:58.930Z,26.17
2019-01-25T08:07:27.618Z,28.35
2019-01-25T08:09:56.477Z,27.27
2019-01-25T08:12:25.161Z,27.55
2019-01-25T08:14:54.101Z,26.48
2019-01-25T08:17:22.801Z,25.88
2019-01-25T08:19:51.511Z,25.32
2019-01-25T08:22:20.268Z,25.48
2019-01-25T08:24:48.987Z,27.10
2019-01-25T08:27:17.676Z,27.93
2019-01-25T08:29:46.451Z,25.40
2019-01-25T08:32:15.175Z,28.62
2019-01-25T08:34:44.705Z,26.62
2019-01-25T08:37:13.457Z,27.93
2019-01-25T08:39:42.137Z,27.52
2019-01-25T08:42:15.389Z,28.55
2019-01-25T08:44:41.280Z,27.25
2019-01-25T08:47:10.033Z,28.57
2019-01-25T08:49:38.789Z,27.15
2019-01-25T08:52:07.492Z,27.42
2019-01-25T08:54:36.049Z,26.20
2019-01-25T08:57:04.751Z,27.75
2019-01-25T08:59:33.415Z,25.20
2019-01-25T09:02:02.075Z,27.00
2019-01-25T09:04:30.778Z,25.62
2019-01-25T09:06:59.479Z,25.40
2019-01-25T09:09:28.163Z,26.30
2019-01-25T09:11:56.940Z,24.70
2019-01-25T09:14:25.680Z,24.80
2019-01-25T09:16:54.312Z,26.00
2019-01-25T09:19:23.005Z,25.70
2019-01-25T09:21:51.704Z,24.67
2019-01-25T09:24:20.447Z,25.85
2019-01-25T09:26:49.213Z,26.05
2019-01-25T09:29:17.904Z,24.82
2019-01-25T09:31:46.608Z,26.35
2019-01-25T09:34:15.383Z,24.07
2019-01-25T09:36:44.087Z,24.82
2019-01-25T09:39:12.796Z,25.12
2019-01-25T09:41:41.545Z,26.23
2019-01-25T09:44:10.133Z,24.67
2019-01-25T09:46:38.829Z,22.27
2019-01-25T09:49:07.607Z,24.60
2019-01-25T09:51:36.272Z,23.98
2019-01-25T09:54:05.046Z,24.50
2019-01-25T09:56:33.808Z,25.43
2019-01-25T09:59:02.469Z,23.83
2019-01-25T10:01:31.137Z,23.40
2019-01-25T10:03:59.894Z,24.03
2019-01-25T10:06:28.555Z,23.47
2019-01-25T10:08:57.284Z,23.93
2019-01-25T10:11:25.970Z,24.30
2019-01-25T10:13:54.688Z,25.10
2019-01-25T10:16:23.338Z,24.97
2019-01-25T10:18:52.215Z,25.03
2019-01-25T10:21:20.983Z,23.60
2019-01-25T10:23:49.729Z,23.67
2019-01-25T10:26:18.512Z,24.82
2019-01-25T10:28:47.305Z,24.32
2019-01-25T10:31:15.965Z,25.57
2019-01-25T10:33:44.780Z,26.07
2019-01-25T10:36:13.562Z,24.80
2019-01-25T10:38:42.534Z,23.55
2019-01-25T10:41:11.395Z,25.70
2019-01-25T10:43:40.315Z,24.70
2019-01-25T10:46:09.079Z,23.40
2019-01-25T10:48:37.657Z,25.55
2019-01-25T10:51:06.313Z,23.67
2019-01-25T10:53:35.109Z,24.12
2019-01-25T10:56:04.190Z,24.67
2019-01-25T10:58:32.867Z,23.85
2019-01-25T11:01:01.576Z,24.32
2019-01-25T11:03:30.269Z,24.80
2019-01-25T11:05:58.939Z,25.12
2019-01-25T11:08:27.627Z,22.80
2019-01-25T11:10:56.399Z,24.25
2019-01-25T11:13:25.163Z,24.70
2019-01-25T11:15:53.844Z,24.15
2019-01-25T11:18:22.650Z,23.70
2019-01-25T11:20:51.417Z,23.98
2019-01-25T11:23:20.147Z,22.45
2019-01-25T11:25:48.875Z,23.55
2019-01-25T11:28:17.764Z,23.62
2019-01-25T11:30:46.508Z,23.95
2019-01-25T11:33:15.250Z,22.20
2019-01-25T11:35:43.947Z,23.20
2019-01-25T11:38:12.569Z,21.93
2019-01-25T11:40:42.056Z,22.80
2019-01-25T11:43:10.787Z,23.95
2019-01-25T11:45:39.437Z,23.35
2019-01-25T11:48:12.359Z,24.98
2019-01-25T11:50:41.020Z,25.95
2019-01-25T11:53:09.690Z,26.65
2019-01-25T11:55:38.349Z,26.12
2019-01-25T11:58:07.087Z,26.45
2019-01-25T12:00:36.865Z,26.95
2019-01-25T12:03:05.658Z,26.60
2019-01-25T12:05:35.170Z,25.52
2019-01-25T12:08:04.082Z,26.68
2019-01-25T12:10:32.914Z,26.50
2019-01-25T12:13:01.618Z,25.90
2019-01-25T12:15:31.373Z,26.55
2019-01-25T12:18:00.050Z,25.80
2019-01-25T12:20:29.325Z,24.92
2019-01-25T12:22:58.039Z,24.65
2019-01-25T12:25:26.804Z,23.90
2019-01-25T12:27:55.589Z,24.43
2019-01-25T12:30:31.147Z,25.23
2019-01-25T12:33:00.022Z,25.05
2019-01-25T12:35:29.592Z,22.82
2019-01-25T12:37:58.428Z,24.75
2019-01-25T12:40:27.176Z,22.35
2019-01-25T12:42:55.863Z,23.87
2019-01-25T12:45:25.289Z,23.42
2019-01-25T12:47:53.989Z,24.32
2019-01-25T12:50:24.093Z,23.00
2019-01-25T12:52:52.777Z,22.27
2019-01-25T12:55:21.467Z,22.58
2019-01-25T12:57:50.199Z,21.93
2019-01-25T13:00:21.315Z,20.73
2019-01-25T13:02:50.175Z,23.40
2019-01-25T13:05:19.031Z,24.10
2019-01-25T13:07:47.722Z,24.47
2019-01-25T13:10:16.721Z,23.67
2019-01-25T13:12:45.286Z,23.27
2019-01-25T13:15:14.039Z,22.63
2019-01-25T13:17:42.825Z,22.83
2019-01-25T13:20:13.126Z,24.07
2019-01-25T13:22:41.979Z,21.63
2019-01-25T13:25:10.675Z,22.47
2019-01-25T13:27:39.472Z,20.77
2019-01-25T13:30:09.904Z,19.30
2019-01-25T13:32:38.976Z,20.37
2019-01-25T13:35:07.917Z,17.77
2019-01-25T13:37:36.577Z,18.67
2019-01-25T13:40:06.512Z,18.70
2019-01-25T13:42:35.194Z,20.93
2019-01-25T13:45:03.941Z,20.45
2019-01-25T13:47:32.576Z,19.13
2019-01-25T13:50:01.341Z,19.52
2019-01-25T13:52:30.111Z,18.87
2019-01-25T13:55:00.032Z,19.42
2019-01-25T13:57:28.784Z,20.40
2019-01-25T13:59:57.495Z,18.92
2019-01-25T14:02:26.233Z,20.30
2019-01-25T14:04:54.957Z,18.67
2019-01-25T14:07:23.693Z,20.00
2019-01-25T14:09:52.397Z,18.40
2019-01-25T14:12:21.127Z,20.57
2019-01-25T14:14:49.808Z,18.32
2019-01-25T14:17:18.574Z,18.95
2019-01-25T14:19:47.382Z,18.77
2019-01-25T14:22:16.101Z,18.10
2019-01-25T14:24:44.666Z,19.55
2019-01-25T14:27:13.368Z,18.40
2019-01-25T14:29:42.086Z,18.07
2019-01-25T14:32:10.800Z,18.42
2019-01-25T14:34:39.546Z,17.67
2019-01-25T14:37:08.200Z,18.17
2019-01-25T14:39:36.889Z,19.35
2019-01-25T14:42:07.997Z,17.62
2019-01-25T14:44:36.674Z,17.40
2019-01-25T14:47:05.387Z,20.10
2019-01-25T14:49:34.110Z,18.92
2019-01-25T14:52:02.765Z,18.17
2019-01-25T14:54:31.446Z,18.23
2019-01-25T14:57:00.141Z,17.77
2019-01-25T14:59:28.820Z,18.60
2019-01-25T15:01:57.907Z,18.57
2019-01-25T15:04:26.617Z,18.50
2019-01-25T15:06:57.371Z,18.12
2019-01-25T15:09:26.044Z,18.15
2019-01-25T15:11:54.706Z,18.35
2019-01-25T15:14:23.485Z,19.62
2019-01-25T15:16:52.240Z,19.25
2019-01-25T15:19:20.934Z,18.10
2019-01-25T15:21:50.861Z,19.00
2019-01-25T15:24:19.685Z,17.87
2019-01-25T15:26:48.406Z,19.02
2019-01-25T15:29:17.150Z,17.27
2019-01-25T15:31:45.897Z,19.23
2019-01-25T15:34:14.594Z,17.80
2019-01-25T15:36:43.321Z,18.23
2019-01-25T15:39:12.128Z,17.37
2019-01-25T15:41:40.852Z,16.90
2019-01-25T15:44:10.164Z,18.23
2019-01-25T15:46:39.082Z,17.67
2019-01-25T15:49:07.758Z,18.35
2019-01-25T15:51:36.459Z,18.02
2019-01-25T15:54:05.289Z,17.23
2019-01-25T15:56:34.211Z,17.95
2019-01-25T15:59:02.987Z,18.15
2019-01-25T16:01:31.763Z,19.48
2019-01-25T16:04:00.477Z,17.70
2019-01-25T16:06:29.182Z,18.00
2019-01-25T16:08:57.823Z,17.57
2019-01-25T16:11:26.506Z,17.98
2019-01-25T16:13:55.242Z,17.90
2019-01-25T16:16:23.955Z,16.62
2019-01-25T16:18:52.656Z,17.98
2019-01-25T16:21:21.410Z,18.37
2019-01-25T16:23:50.120Z,18.37
2019-01-25T16:26:18.870Z,17.60
2019-01-25T16:28:47.604Z,17.17
2019-01-25T16:31:16.656Z,18.30
2019-01-25T16:33:45.663Z,18.00
2019-01-25T16:36:14.464Z,17.45
2019-01-25T16:38:43.207Z,17.25
2019-01-25T16:41:11.995Z,17.67
2019-01-25T16:43:40.740Z,16.67
2019-01-25T16:46:09.434Z,19.57
2019-01-25T16:48:38.323Z,16.67
2019-01-25T16:51:07.014Z,16.93
2019-01-25T16:53:35.727Z,17.92
2019-01-25T16:56:05.179Z,17.32
2019-01-25T16:58:34.084Z,18.32
2019-01-25T17:01:02.876Z,19.05
2019-01-25T17:03:31.735Z,18.12
2019-01-25T17:06:00.672Z,19.15
2019-01-25T17:08:29.559Z,18.77
2019-01-25T17:10:58.329Z,17.60
2019-01-25T17:13:27.106Z,18.77
2019-01-25T17:15:55.945Z,19.60
2019-01-25T17:18:24.703Z,19.00
2019-01-25T17:24:08.152Z,19.12
2019-01-25T17:26:38.006Z,18.62
2019-01-25T17:29:06.734Z,20.00
2019-01-25T17:31:35.463Z,18.70
2019-01-25T17:34:05.187Z,19.10
2019-01-25T17:36:34.004Z,18.42
2019-01-25T17:39:02.807Z,18.73
2019-01-25T17:41:31.703Z,18.50
2019-01-25T17:44:00.510Z,18.82
2019-01-25T17:46:29.298Z,17.67
2019-01-25T17:48:58.244Z,17.65
2019-01-25T17:51:27.320Z,17.25
2019-01-25T17:53:56.148Z,18.95
2019-01-25T17:56:24.933Z,17.92
2019-01-25T17:58:53.823Z,17.57
2019-01-25T18:01:22.854Z,19.90
2019-01-25T18:03:51.766Z,18.92
2019-01-25T18:06:20.670Z,17.80
2019-01-25T18:08:49.438Z,19.48
2019-01-25T18:11:18.156Z,19.50
2019-01-25T18:13:46.824Z,20.52
2019-01-25T18:16:15.731Z,17.98
2019-01-25T18:18:44.515Z,19.77
2019-01-25T19:17:09.676Z,19.35
2019-01-25T19:20:11.737Z,18.80
2019-01-25T19:22:50.193Z,17.98
2019-01-25T19:25:20.580Z,18.77
2019-01-25T19:27:50.474Z,20.30
2019-01-25T19:30:26.608Z,19.48
2019-01-25T19:32:56.595Z,17.77
2019-01-25T19:35:26.520Z,18.40
2019-01-25T19:37:55.707Z,18.92
2019-01-25T19:40:25.390Z,18.30
2019-01-25T19:42:54.193Z,17.37
2019-01-25T19:45:25.149Z,16.80
2019-01-25T19:47:56.294Z,17.23
2019-01-25T19:50:26.246Z,16.80
2019-01-25T19:52:55.192Z,15.83
2019-01-25T19:55:27.628Z,16.65
2019-01-25T19:57:57.782Z,16.77
2019-01-25T20:00:32.597Z,16.42
2019-01-25T20:03:02.373Z,15.70
2019-01-25T20:05:32.264Z,16.80
2019-01-25T20:08:04.228Z,15.70
2019-01-25T20:10:35.092Z,16.48
2019-01-25T20:13:04.832Z,14.30
2019-01-25T20:15:34.610Z,16.17
2019-01-25T20:18:04.167Z,16.60
2019-01-25T20:20:34.746Z,15.78
2019-01-25T20:23:04.388Z,16.45
2019-01-25T20:25:34.772Z,15.08
2019-01-25T20:28:05.314Z,15.15
2019-01-25T20:30:36.786Z,16.05
2019-01-25T20:33:07.132Z,14.80
2019-01-25T20:35:47.367Z,13.68
2019-01-25T20:38:16.258Z,14.53
2019-01-25T20:40:45.420Z,14.68
2019-01-25T20:43:14.369Z,13.30
2019-01-25T20:45:43.363Z,13.48
2019-01-25T20:48:12.152Z,14.05
2019-01-25T20:50:40.918Z,13.38
2019-01-25T20:53:11.886Z,14.45
2019-01-25T20:55:40.742Z,13.48
2019-01-25T20:58:09.554Z,13.30
2019-01-25T21:00:39.145Z,12.40
2019-01-25T21:03:11.248Z,12.90
2019-01-25T21:05:39.991Z,12.95
2019-01-25T21:08:08.860Z,12.82
2019-01-25T21:10:37.718Z,13.32
2019-01-25T21:13:06.664Z,11.75
2019-01-25T21:15:35.695Z,12.07
2019-01-25T21:18:06.277Z,12.65
2019-01-25T21:20:40.362Z,11.95
2019-01-25T21:23:10.171Z,13.32
2019-01-25T21:25:40.624Z,12.80
